Gustavsfors, Sweden

12:07 PM CEST on July 25, 2014 (GMT +0200)
Jonsarna, Ransbysatter, Varmland, Sweden (IVRMLAND13) Elev 427 ft | 60.03 °N, 13.24 °E | Change Station

Current weather conditions updated 35 seconds ago

Clear
Clear
86.7 °F
Feels Like 86 °F
N
1.0
Wind Variable Wind from South
Gusts 2.0 mph

Today is forecast to be Cooler than yesterday.

Today
High -- | Low -- °F
--% Chance of Precip.
Yesterday
High -- | Low -- °F
Precip. -- in
4:27 AM 9:53 PM
Waning Crescent, 2% visible
Pressure 30.18 in
Visibility 6.2 miles
Clouds
Heat Index 86 °F
Dew Point 60 °F
Humidity 40%
Rainfall 0.00 in
Snow Depth Not available.
UV 7.0 out of 12
Pollen Not available.
Air Quality Not available.
Flu Activity Not available.
METAR ESOK 250950Z AUTO 08003KT 030V150 9999 NCD 27/16 Q1022

More Conditions Fewer Conditions

Pressure 30.18 in
Visibility 6.2 miles
Clouds
Heat Index 86 °F
Dew Point 60 °F
Humidity 40%
Rainfall 0.00 in
Snow Depth Not available.
UV 7.0 out of 12
Pollen Not available.
Air Quality Not available.
Flu Activity Not available.
METAR ESOK 250950Z AUTO 08003KT 030V150 9999 NCD 27/16 Q1022

More Conditions Fewer Conditions

10-Day Weather Forecast

Almanac

Astronomy

Jul. 25, 2014 Rise Set
Actual Time 4:27 AM CEST 9:53 PM CEST
Civil Twilight 3:19 AM CEST 11:00 PM CEST
Nautical Twilight 1:43 AM CEST 12:38 AM CEST
Astronomical Twilight Sun does not rise Sun does not rise
Moon 3:23 AM CEST 8:21 PM CEST
Length of Visible Light 19h 40m
Length of Day
17h 25m
Tomorrow will be 4m 33s shorter.
Waning Crescent, 2% of the Moon is Illuminated
Today
Waning Crescent
Jul 26
New
Aug 3
First Quarter
Aug 10
Full
Aug 17
Last Quarter

Yesterday's Extremes

Country Highs Country Lows

Community

WunderPhotos

Upload Photos

1,737,276 photos uploaded!

Nearby

Snow Depth

Not available.

Earthquake Activity

City Distance Mag. Time & Date
No recent earthquake activity has been reported nearby.
Minimum magnitude displayed is 2.5.

Coastal Water Temperatures

Place Temperature
No Stations Reporting

Nearby Weather Stations

Station Location Temp. Heat Index Dew Point Humidity Wind Precip. Elev Updated Type
Jonsarna, Ransbysatter, Varmland, Sweden, Värmland County 86.7 °F 86 °F 60 °F 40% South  at  1.0 mph 0.00 in / hr 427 ft 12:07 PM CEST Normal

Show More Stations Show Fewer Stations